createdAt,value
2019-01-29T00:00:48.842Z,6.20
2019-01-29T00:03:52.274Z,11.47
2019-01-29T00:06:55.710Z,9.90
2019-01-29T00:09:59.118Z,7.90
2019-01-29T00:13:02.546Z,7.57
2019-01-29T00:16:06.020Z,6.50
2019-01-29T00:19:09.476Z,8.03
2019-01-29T00:22:12.898Z,9.10
2019-01-29T00:25:16.401Z,7.23
2019-01-29T00:28:19.813Z,8.80
2019-01-29T00:31:23.228Z,8.47
2019-01-29T00:34:26.637Z,8.07
2019-01-29T00:37:30.132Z,7.27
2019-01-29T00:40:33.552Z,10.57
2019-01-29T00:43:36.988Z,9.83
2019-01-29T00:46:40.424Z,11.93
2019-01-29T00:49:43.836Z,8.97
2019-01-29T00:52:47.277Z,11.27
2019-01-29T00:55:50.689Z,13.77
2019-01-29T00:58:54.126Z,13.50
2019-01-29T01:01:57.568Z,12.70
2019-01-29T01:05:00.988Z,12.03
2019-01-29T01:08:04.504Z,10.90
2019-01-29T01:11:07.940Z,13.33
2019-01-29T01:14:11.366Z,11.47
2019-01-29T01:17:14.770Z,11.90
2019-01-29T01:20:18.945Z,10.97
2019-01-29T01:23:22.351Z,10.93
2019-01-29T01:26:25.768Z,12.30
2019-01-29T01:29:29.213Z,12.27
2019-01-29T01:32:32.645Z,12.57
2019-01-29T01:35:36.094Z,14.73
2019-01-29T01:38:39.512Z,14.10
2019-01-29T01:41:42.935Z,9.60
2019-01-29T01:44:46.350Z,14.93
2019-01-29T01:47:49.768Z,13.27
2019-01-29T01:50:53.203Z,12.03
2019-01-29T01:53:56.628Z,11.33
2019-01-29T01:57:00.041Z,10.73
2019-01-29T02:00:04.904Z,12.17
2019-01-29T02:03:08.315Z,10.50
2019-01-29T02:06:11.792Z,14.07
2019-01-29T02:09:15.271Z,12.10
2019-01-29T02:12:18.686Z,12.77
2019-01-29T02:15:22.513Z,13.27
2019-01-29T02:18:25.923Z,11.77
2019-01-29T02:21:29.355Z,12.87
2019-01-29T02:24:32.771Z,12.43
2019-01-29T02:27:36.216Z,13.30
2019-01-29T02:30:39.640Z,13.13
2019-01-29T02:33:45.845Z,14.33
2019-01-29T02:36:49.252Z,11.20
2019-01-29T02:39:52.696Z,13.43
2019-01-29T02:42:56.101Z,12.90
2019-01-29T02:45:59.536Z,11.27
2019-01-29T02:49:02.981Z,11.63
2019-01-29T02:52:06.453Z,9.27
2019-01-29T02:55:12.049Z,11.00
2019-01-29T02:58:15.472Z,11.50
2019-01-29T03:01:18.925Z,14.87
2019-01-29T03:04:22.382Z,10.27
2019-01-29T03:07:25.881Z,13.50
2019-01-29T03:10:29.392Z,11.57
2019-01-29T03:13:32.800Z,12.60
2019-01-29T03:16:36.247Z,10.47
2019-01-29T03:19:39.672Z,9.73
2019-01-29T03:22:43.119Z,14.87
2019-01-29T03:25:46.604Z,11.07
2019-01-29T03:28:50.048Z,12.40
2019-01-29T03:31:53.477Z,12.50
2019-01-29T03:34:56.913Z,13.57
2019-01-29T03:38:00.348Z,14.00
2019-01-29T03:41:03.813Z,12.57
2019-01-29T03:44:07.328Z,12.23
2019-01-29T03:47:10.774Z,10.80
2019-01-29T03:50:19.917Z,14.50
2019-01-29T03:53:23.336Z,13.07
2019-01-29T03:56:26.759Z,14.57
2019-01-29T03:59:30.298Z,12.60
2019-01-29T04:02:33.708Z,11.93
2019-01-29T04:05:37.144Z,14.50
2019-01-29T04:08:40.593Z,10.93
2019-01-29T04:11:44.001Z,15.83
2019-01-29T04:14:47.469Z,20.27
2019-01-29T04:17:56.495Z,12.97
2019-01-29T04:20:59.944Z,12.57
2019-01-29T04:24:03.388Z,12.70
2019-01-29T04:27:06.802Z,16.60
2019-01-29T04:30:17.964Z,12.87
2019-01-29T04:33:21.480Z,17.17
2019-01-29T04:36:24.906Z,14.10
2019-01-29T04:39:28.337Z,16.57
2019-01-29T04:42:31.792Z,12.17
2019-01-29T04:45:35.292Z,13.83
2019-01-29T04:48:38.716Z,13.03
2019-01-29T04:51:42.129Z,14.13
2019-01-29T04:54:45.576Z,12.50
2019-01-29T04:57:49.012Z,10.37
2019-01-29T05:00:52.448Z,13.47
2019-01-29T05:03:55.852Z,10.93
2019-01-29T05:06:59.317Z,11.60
2019-01-29T05:10:02.825Z,10.77
2019-01-29T05:13:06.254Z,11.27
2019-01-29T05:16:09.704Z,12.83
2019-01-29T05:19:13.140Z,9.40
2019-01-29T05:22:16.585Z,10.93
2019-01-29T05:25:20.152Z,14.33
2019-01-29T05:28:23.568Z,11.37
2019-01-29T05:31:27.025Z,13.03
2019-01-29T05:34:30.442Z,13.73
2019-01-29T05:37:33.915Z,12.43
2019-01-29T05:40:37.322Z,12.80
2019-01-29T05:43:40.753Z,13.50
2019-01-29T05:46:44.231Z,12.20
2019-01-29T05:49:47.632Z,16.00
2019-01-29T05:52:51.088Z,8.30
2019-01-29T05:55:54.520Z,10.93
2019-01-29T05:58:57.961Z,8.03
2019-01-29T06:02:01.364Z,11.03
2019-01-29T06:05:07.826Z,11.10
2019-01-29T06:08:11.263Z,11.67
2019-01-29T06:11:14.668Z,9.93
2019-01-29T06:14:18.121Z,14.10
2019-01-29T06:17:27.397Z,11.50
2019-01-29T06:20:31.066Z,16.10
2019-01-29T06:23:34.513Z,11.60
2019-01-29T06:26:38.012Z,12.77
2019-01-29T06:29:41.429Z,14.83
2019-01-29T06:32:45.048Z,13.70
2019-01-29T06:35:48.462Z,11.63
2019-01-29T06:38:51.910Z,11.20
2019-01-29T06:41:55.338Z,8.43
2019-01-29T06:44:58.752Z,9.70
2019-01-29T06:48:02.193Z,11.53
2019-01-29T06:51:05.703Z,11.73
2019-01-29T06:54:09.136Z,12.63
2019-01-29T06:57:12.557Z,9.17
2019-01-29T07:00:21.657Z,9.60
2019-01-29T07:03:25.074Z,12.47
2019-01-29T07:06:28.516Z,11.80
2019-01-29T07:09:31.928Z,12.00
2019-01-29T07:12:35.368Z,14.77
2019-01-29T07:15:56.401Z,12.63
2019-01-29T07:19:01.446Z,14.13
2019-01-29T07:22:05.261Z,14.00
2019-01-29T07:25:10.097Z,12.20
2019-01-29T07:28:13.562Z,18.00
2019-01-29T07:31:16.956Z,18.10
2019-01-29T07:34:20.424Z,15.50
2019-01-29T07:37:23.833Z,15.73
2019-01-29T07:40:27.311Z,14.40
2019-01-29T07:43:30.725Z,16.43
2019-01-29T07:46:34.174Z,14.80
2019-01-29T07:49:37.583Z,13.73
2019-01-29T07:52:41.029Z,15.07
2019-01-29T07:55:44.456Z,15.07
2019-01-29T07:58:49.234Z,20.27
2019-01-29T08:01:52.827Z,22.93
2019-01-29T08:04:56.248Z,20.00
2019-01-29T08:07:59.680Z,20.90
2019-01-29T08:11:03.097Z,23.37
2019-01-29T08:14:09.579Z,16.63
2019-01-29T08:17:13.031Z,21.37
2019-01-29T08:20:17.637Z,21.07
2019-01-29T08:23:21.045Z,17.97
2019-01-29T08:26:25.433Z,22.23
2019-01-29T08:29:30.668Z,21.87
2019-01-29T08:32:34.264Z,22.50
2019-01-29T08:35:37.676Z,20.47
2019-01-29T08:38:41.111Z,26.50
2019-01-29T08:41:44.558Z,26.07
2019-01-29T08:44:48.003Z,22.20
2019-01-29T08:47:51.412Z,23.13
2019-01-29T08:50:54.864Z,23.83
2019-01-29T08:53:58.277Z,27.37
2019-01-29T08:57:01.723Z,24.00
2019-01-29T09:00:08.573Z,19.53
2019-01-29T09:03:12.107Z,21.13
2019-01-29T09:06:15.524Z,19.53
2019-01-29T09:09:18.981Z,24.10
2019-01-29T09:12:22.394Z,22.30
2019-01-29T09:15:25.848Z,20.53
2019-01-29T09:18:29.279Z,18.53
2019-01-29T09:21:33.693Z,19.73
2019-01-29T09:24:37.238Z,21.87
2019-01-29T09:27:40.648Z,18.90
2019-01-29T09:30:44.105Z,16.17
2019-01-29T09:33:47.517Z,16.93
2019-01-29T09:36:50.983Z,15.63
2019-01-29T09:39:54.407Z,18.13
2019-01-29T09:42:57.829Z,13.37
2019-01-29T09:46:01.241Z,16.50
2019-01-29T09:49:05.011Z,12.63
2019-01-29T09:52:08.443Z,12.97
2019-01-29T09:55:14.425Z,11.63
2019-01-29T09:58:17.830Z,11.73
2019-01-29T10:01:21.301Z,11.33
2019-01-29T10:04:24.717Z,15.57
2019-01-29T10:07:28.143Z,13.00
2019-01-29T10:10:31.692Z,13.40
2019-01-29T10:13:35.105Z,14.13
2019-01-29T10:16:38.580Z,14.93
2019-01-29T10:19:42.058Z,14.03
2019-01-29T10:22:45.718Z,13.07
2019-01-29T10:25:50.142Z,17.27
2019-01-29T10:28:53.579Z,11.87
2019-01-29T10:31:57.012Z,11.57
2019-01-29T10:35:00.454Z,9.67
2019-01-29T10:38:03.928Z,12.87
2019-01-29T10:41:07.394Z,13.83
2019-01-29T10:44:10.797Z,10.30
2019-01-29T10:47:14.225Z,9.90
2019-01-29T10:50:23.561Z,13.13
2019-01-29T10:53:27.028Z,11.00
2019-01-29T10:56:30.464Z,17.10
2019-01-29T10:59:33.908Z,8.97
2019-01-29T11:02:37.361Z,10.83
2019-01-29T11:05:41.188Z,7.60
2019-01-29T11:08:44.604Z,10.07
2019-01-29T11:11:48.060Z,9.43
2019-01-29T11:14:51.468Z,13.27
2019-01-29T11:17:55.161Z,9.47
2019-01-29T11:20:58.581Z,8.13
2019-01-29T11:24:02.029Z,10.57
2019-01-29T11:27:05.487Z,10.10
2019-01-29T11:30:17.776Z,11.47
2019-01-29T11:33:21.236Z,11.37
2019-01-29T11:36:24.643Z,12.57
2019-01-29T11:39:28.079Z,11.80
2019-01-29T11:42:31.492Z,10.47
2019-01-29T11:45:43.479Z,9.73
2019-01-29T11:48:46.912Z,10.23
2019-01-29T11:51:50.336Z,6.37
2019-01-29T11:54:53.750Z,6.87
2019-01-29T11:57:58.185Z,7.87
2019-01-29T12:01:06.074Z,11.30
2019-01-29T12:04:09.512Z,10.50
2019-01-29T12:07:13.010Z,10.90
2019-01-29T12:10:16.612Z,10.10
2019-01-29T12:13:20.033Z,8.70
2019-01-29T12:16:23.460Z,7.33
2019-01-29T12:19:26.889Z,5.50
2019-01-29T12:22:30.421Z,8.73
2019-01-29T12:25:33.920Z,7.33
2019-01-29T12:28:37.349Z,8.17
2019-01-29T12:31:40.824Z,7.87
2019-01-29T12:34:44.280Z,6.40
2019-01-29T12:37:47.789Z,6.17
2019-01-29T12:40:51.275Z,8.63
2019-01-29T13:18:27.873Z,7.70
2019-01-29T13:21:31.292Z,7.43
2019-01-29T13:24:34.712Z,8.80
2019-01-29T13:27:38.214Z,8.63
2019-01-29T13:30:41.685Z,8.93
2019-01-29T13:33:45.097Z,6.17
2019-01-29T13:36:48.532Z,6.80
2019-01-29T13:39:51.980Z,9.17
2019-01-29T13:42:55.395Z,11.30
2019-01-29T13:45:58.850Z,5.60
2019-01-29T13:49:02.299Z,4.53
2019-01-29T13:52:05.705Z,7.47
2019-01-29T13:55:12.493Z,4.30
2019-01-29T13:58:16.028Z,9.80
2019-01-29T14:01:19.456Z,8.40
2019-01-29T14:04:22.869Z,5.97
2019-01-29T14:07:26.310Z,7.30
2019-01-29T14:10:29.757Z,4.87
2019-01-29T14:13:33.166Z,5.30
2019-01-29T14:16:36.597Z,6.90
2019-01-29T14:19:40.032Z,5.63
2019-01-29T14:22:43.469Z,5.37
2019-01-29T14:25:46.904Z,6.73
2019-01-29T14:28:50.319Z,6.73
2019-01-29T14:31:53.753Z,7.20
2019-01-29T14:34:57.165Z,7.30
2019-01-29T14:38:12.334Z,6.33
2019-01-29T14:41:15.736Z,6.67
2019-01-29T14:44:19.177Z,8.23
2019-01-29T14:47:22.588Z,6.13
2019-01-29T14:50:27.112Z,4.13
2019-01-29T14:53:30.576Z,5.47
2019-01-29T14:56:34.119Z,8.77
2019-01-29T14:59:37.576Z,8.67
2019-01-29T15:02:41.058Z,6.37
2019-01-29T15:05:44.537Z,7.57
2019-01-29T15:08:48.041Z,12.73
2019-01-29T15:11:51.584Z,5.70
2019-01-29T15:14:55.057Z,5.47
2019-01-29T15:18:03.044Z,6.83
2019-01-29T15:21:06.456Z,6.30
2019-01-29T15:24:16.024Z,7.07
2019-01-29T15:27:19.434Z,6.03
2019-01-29T15:30:25.508Z,5.37
2019-01-29T15:33:28.960Z,5.97
2019-01-29T15:36:32.373Z,7.73
2019-01-29T15:39:35.808Z,7.80
2019-01-29T15:42:39.237Z,11.50
2019-01-29T15:45:42.782Z,11.00
2019-01-29T15:48:46.194Z,8.57
2019-01-29T15:51:49.645Z,8.90
2019-01-29T15:54:53.060Z,10.53
2019-01-29T15:57:57.147Z,8.50
2019-01-29T16:01:00.677Z,7.70
2019-01-29T16:04:04.632Z,6.13
2019-01-29T16:07:08.075Z,7.60
2019-01-29T16:10:14.561Z,8.47
2019-01-29T16:13:18.017Z,6.90
2019-01-29T16:16:21.429Z,7.53
2019-01-29T16:19:24.898Z,9.67
2019-01-29T16:22:28.300Z,8.47
2019-01-29T16:25:33.288Z,9.17
2019-01-29T16:28:36.700Z,8.30
2019-01-29T16:31:40.156Z,8.53
2019-01-29T16:34:43.609Z,9.70
2019-01-29T16:37:47.146Z,11.47
2019-01-29T16:40:50.602Z,8.40
2019-01-29T16:43:54.051Z,9.67
2019-01-29T16:46:57.556Z,6.80
2019-01-29T16:50:01.012Z,6.10
2019-01-29T16:53:06.936Z,9.77
2019-01-29T16:56:10.372Z,10.00
2019-01-29T16:59:13.808Z,6.33
2019-01-29T17:02:17.254Z,9.17
2019-01-29T17:05:20.769Z,9.67
2019-01-29T17:08:24.273Z,9.67
2019-01-29T17:11:27.716Z,7.20
2019-01-29T17:14:31.140Z,8.13
2019-01-29T17:17:34.576Z,18.83
2019-01-29T17:20:45.536Z,10.53
2019-01-29T17:23:48.967Z,8.50
2019-01-29T17:26:52.388Z,7.93
2019-01-29T17:29:55.817Z,7.10
2019-01-29T17:32:59.250Z,8.53
2019-01-29T17:36:02.697Z,10.57
2019-01-29T17:39:07.368Z,6.70
2019-01-29T17:42:10.814Z,7.30
2019-01-29T17:45:17.633Z,8.57
2019-01-29T17:48:21.065Z,9.87
2019-01-29T17:51:24.483Z,11.13
2019-01-29T17:54:27.922Z,8.53
2019-01-29T17:57:33.482Z,7.87
2019-01-29T18:00:38.536Z,9.63
2019-01-29T18:03:41.976Z,7.73
2019-01-29T18:06:45.394Z,9.37
2019-01-29T18:09:48.875Z,9.37
2019-01-29T18:12:52.295Z,7.20
2019-01-29T18:15:55.718Z,11.27
2019-01-29T18:18:59.153Z,7.37
2019-01-29T18:22:02.613Z,7.10
2019-01-29T18:25:08.810Z,7.97
2019-01-29T18:28:12.246Z,8.67
2019-01-29T18:31:15.657Z,9.17
2019-01-29T18:34:19.115Z,10.10
2019-01-29T18:37:22.509Z,7.53
2019-01-29T18:40:28.849Z,7.93
2019-01-29T18:43:32.291Z,11.53
2019-01-29T18:46:35.704Z,7.40
2019-01-29T18:49:39.149Z,14.57
2019-01-29T18:52:42.564Z,8.40
2019-01-29T18:55:46.023Z,9.67
2019-01-29T18:58:49.428Z,11.60
2019-01-29T19:01:52.856Z,9.10
2019-01-29T19:04:56.315Z,8.93
2019-01-29T19:07:59.744Z,12.80
2019-01-29T19:11:03.158Z,7.60
2019-01-29T19:14:06.688Z,8.83
2019-01-29T19:17:10.109Z,9.63
2019-01-29T19:20:16.388Z,8.93
2019-01-29T19:23:19.800Z,7.77
2019-01-29T19:26:23.245Z,11.40
2019-01-29T19:29:26.681Z,8.80
2019-01-29T19:32:30.138Z,12.10
2019-01-29T19:35:33.546Z,8.17
2019-01-29T19:38:36.995Z,7.93
2019-01-29T19:41:40.424Z,10.03
2019-01-29T19:44:43.867Z,9.73
2019-01-29T19:47:47.393Z,8.93
2019-01-29T19:50:50.801Z,9.10
2019-01-29T19:53:54.237Z,9.10
2019-01-29T19:56:57.707Z,9.67
2019-01-29T20:00:02.730Z,10.17
2019-01-29T20:03:06.251Z,9.63
2019-01-29T20:06:09.669Z,9.37
2019-01-29T20:09:13.139Z,10.00
2019-01-29T20:12:16.544Z,11.83
2019-01-29T20:15:25.060Z,10.63
2019-01-29T20:18:28.481Z,8.77
2019-01-29T20:21:31.950Z,8.07
2019-01-29T20:24:35.416Z,9.20
2019-01-29T20:27:38.860Z,10.07
2019-01-29T20:30:42.343Z,10.00
2019-01-29T20:33:45.850Z,10.60
2019-01-29T20:36:49.348Z,7.97
2019-01-29T20:39:52.781Z,9.00
2019-01-29T20:42:56.225Z,10.27
2019-01-29T20:45:59.654Z,11.07
2019-01-29T20:49:03.101Z,9.90
2019-01-29T20:52:06.801Z,9.30
2019-01-29T20:55:11.723Z,10.17
2019-01-29T20:58:15.300Z,8.77
2019-01-29T21:01:18.728Z,13.03
2019-01-29T21:04:22.240Z,9.53
2019-01-29T21:07:25.657Z,11.17
2019-01-29T21:10:29.111Z,10.17
2019-01-29T21:13:32.528Z,9.40
2019-01-29T21:16:35.962Z,8.90
2019-01-29T21:19:39.381Z,9.83
2019-01-29T21:22:42.841Z,9.30
2019-01-29T21:25:46.251Z,8.33
2019-01-29T21:28:49.689Z,11.57
2019-01-29T21:31:53.137Z,8.07
2019-01-29T21:34:56.560Z,8.03
2019-01-29T21:38:02.695Z,8.53
2019-01-29T21:41:07.689Z,10.60
2019-01-29T21:44:11.157Z,10.20
2019-01-29T21:47:14.585Z,8.43
2019-01-29T21:50:20.954Z,8.50
2019-01-29T21:53:24.377Z,10.53
2019-01-29T21:56:27.870Z,9.60
2019-01-29T21:59:31.321Z,8.73
2019-01-29T22:02:34.758Z,8.60
2019-01-29T22:05:38.346Z,8.87
2019-01-29T22:08:41.772Z,10.87
2019-01-29T22:11:45.257Z,10.40
2019-01-29T22:14:48.674Z,9.43
2019-01-29T22:17:52.212Z,9.30
2019-01-29T22:20:55.632Z,10.33
2019-01-29T22:23:59.088Z,8.30
2019-01-29T22:27:02.509Z,9.03
2019-01-29T22:30:17.704Z,7.20
2019-01-29T22:33:21.137Z,7.50
2019-01-29T22:36:24.576Z,6.87
2019-01-29T22:39:28.028Z,7.50
2019-01-29T22:42:31.452Z,9.20
2019-01-29T22:45:34.996Z,10.07
2019-01-29T22:48:38.408Z,9.83
2019-01-29T22:51:41.856Z,10.93
2019-01-29T22:54:45.279Z,9.00
2019-01-29T22:57:48.905Z,11.90
2019-01-29T23:00:59.336Z,8.37
2019-01-29T23:04:04.020Z,11.17
2019-01-29T23:07:07.437Z,9.50
2019-01-29T23:10:13.981Z,9.90
2019-01-29T23:13:17.406Z,8.83
2019-01-29T23:16:21.092Z,10.33
2019-01-29T23:19:24.513Z,12.17
2019-01-29T23:22:27.953Z,12.17
2019-01-29T23:25:31.408Z,11.47
2019-01-29T23:28:34.832Z,11.03
2019-01-29T23:31:38.272Z,8.13
2019-01-29T23:34:41.709Z,12.30
2019-01-29T23:37:50.909Z,11.53
2019-01-29T23:40:54.347Z,11.17
2019-01-29T23:43:57.784Z,10.57
2019-01-29T23:47:01.205Z,12.67
2019-01-29T23:50:07.765Z,10.90
2019-01-29T23:53:11.213Z,10.10
2019-01-29T23:56:14.624Z,11.77
2019-01-29T23:59:18.077Z,15.00
